sensor_id;sensor_type;location;lat;lon;timestamp;temperature;humidity
25138;DHT22;13112;50.986;4.354;2023-01-09T00:02:19;6.60;99.90
25138;DHT22;13112;50.986;4.354;2023-01-09T00:04:45;6.60;99.90
25138;DHT22;13112;50.986;4.354;2023-01-09T00:07:11;6.70;99.90
25138;DHT22;13112;50.986;4.354;2023-01-09T00:09:36;6.70;99.90
25138;DHT22;13112;50.986;4.354;2023-01-09T00:12:02;6.70;99.90
25138;DHT22;13112;50.986;4.354;2023-01-09T00:14:28;6.70;99.90
25138;DHT22;13112;50.986;4.354;2023-01-09T00:16:54;6.70;99.90
25138;DHT22;13112;50.986;4.354;2023-01-09T00:19:20;6.60;99.90
25138;DHT22;13112;50.986;4.354;2023-01-09T00:21:46;6.60;99.90
25138;DHT22;13112;50.986;4.354;2023-01-09T00:24:12;6.70;99.90
25138;DHT22;13112;50.986;4.354;2023-01-09T00:26:37;6.60;99.90
25138;DHT22;13112;50.986;4.354;2023-01-09T00:29:03;6.60;99.90
25138;DHT22;13112;50.986;4.354;2023-01-09T00:31:29;6.60;99.90
25138;DHT22;13112;50.986;4.354;2023-01-09T00:34:00;6.50;99.90
25138;DHT22;13112;50.986;4.354;2023-01-09T00:36:27;6.50;99.90
25138;DHT22;13112;50.986;4.354;2023-01-09T00:38:53;6.50;99.90
25138;DHT22;13112;50.986;4.354;2023-01-09T00:41:39;6.60;99.90
25138;DHT22;13112;50.986;4.354;2023-01-09T00:44:12;6.70;99.90
25138;DHT22;13112;50.986;4.354;2023-01-09T00:46:42;6.60;99.90
25138;DHT22;13112;50.986;4.354;2023-01-09T00:49:10;6.60;99.90
25138;DHT22;13112;50.986;4.354;2023-01-09T00:51:37;6.60;99.90
25138;DHT22;13112;50.986;4.354;2023-01-09T00:54:04;6.50;99.90
25138;DHT22;13112;50.986;4.354;2023-01-09T00:56:30;6.50;99.90
25138;DHT22;13112;50.986;4.354;2023-01-09T00:58:56;6.60;99.90
25138;DHT22;13112;50.986;4.354;2023-01-09T01:01:21;6.60;99.90
25138;DHT22;13112;50.986;4.354;2023-01-09T01:03:47;6.50;99.90
25138;DHT22;13112;50.986;4.354;2023-01-09T01:06:13;6.50;99.90
25138;DHT22;13112;50.986;4.354;2023-01-09T01:08:57;6.40;99.90
25138;DHT22;13112;50.986;4.354;2023-01-09T01:11:23;6.50;99.90
25138;DHT22;13112;50.986;4.354;2023-01-09T01:13:49;6.50;99.90
25138;DHT22;13112;50.986;4.354;2023-01-09T01:16:15;6.40;99.90
25138;DHT22;13112;50.986;4.354;2023-01-09T01:18:42;6.40;99.90
25138;DHT22;13112;50.986;4.354;2023-01-09T01:21:10;6.30;99.90
25138;DHT22;13112;50.986;4.354;2023-01-09T01:23:36;6.30;99.90
25138;DHT22;13112;50.986;4.354;2023-01-09T01:26:07;6.40;99.90
25138;DHT22;13112;50.986;4.354;2023-01-09T01:28:33;6.40;99.90
25138;DHT22;13112;50.986;4.354;2023-01-09T01:30:59;6.40;99.90
25138;DHT22;13112;50.986;4.354;2023-01-09T01:33:24;6.40;99.90
25138;DHT22;13112;50.986;4.354;2023-01-09T01:35:51;6.40;99.90
25138;DHT22;13112;50.986;4.354;2023-01-09T01:38:23;6.50;99.90
25138;DHT22;13112;50.986;4.354;2023-01-09T01:40:53;6.40;99.90
25138;DHT22;13112;50.986;4.354;2023-01-09T01:43:19;6.40;99.90
25138;DHT22;13112;50.986;4.354;2023-01-09T01:45:44;6.40;99.90
25138;DHT22;13112;50.986;4.354;2023-01-09T01:48:13;6.40;99.90
25138;DHT22;13112;50.986;4.354;2023-01-09T01:51:07;6.40;99.90
25138;DHT22;13112;50.986;4.354;2023-01-09T01:53:38;6.50;99.90
25138;DHT22;13112;50.986;4.354;2023-01-09T01:56:18;6.30;99.90
25138;DHT22;13112;50.986;4.354;2023-01-09T01:58:53;6.20;99.90
25138;DHT22;13112;50.986;4.354;2023-01-09T02:01:22;6.20;99.90
25138;DHT22;13112;50.986;4.354;2023-01-09T02:03:50;6.10;99.90
25138;DHT22;13112;50.986;4.354;2023-01-09T02:06:17;6.10;99.90
25138;DHT22;13112;50.986;4.354;2023-01-09T02:08:43;6.10;99.90
25138;DHT22;13112;50.986;4.354;2023-01-09T02:11:09;6.20;99.90
25138;DHT22;13112;50.986;4.354;2023-01-09T02:13:37;6.20;99.90
25138;DHT22;13112;50.986;4.354;2023-01-09T02:19:18;6.20;99.90
25138;DHT22;13112;50.986;4.354;2023-01-09T02:24:35;6.30;99.90
25138;DHT22;13112;50.986;4.354;2023-01-09T02:30:09;6.30;99.90
25138;DHT22;13112;50.986;4.354;2023-01-09T02:32:57;6.40;99.90
25138;DHT22;13112;50.986;4.354;2023-01-09T02:38:40;6.50;99.90
25138;DHT22;13112;50.986;4.354;2023-01-09T02:41:10;6.50;99.90
25138;DHT22;13112;50.986;4.354;2023-01-09T02:43:38;6.60;99.90
25138;DHT22;13112;50.986;4.354;2023-01-09T02:46:05;6.60;99.90
25138;DHT22;13112;50.986;4.354;2023-01-09T02:48:31;6.60;99.90
25138;DHT22;13112;50.986;4.354;2023-01-09T02:57:06;6.70;99.90
25138;DHT22;13112;50.986;4.354;2023-01-09T03:05:55;6.70;99.90
25138;DHT22;13112;50.986;4.354;2023-01-09T03:08:30;6.80;99.90
25138;DHT22;13112;50.986;4.354;2023-01-09T03:11:04;6.90;99.90
25138;DHT22;13112;50.986;4.354;2023-01-09T03:13:42;7.00;99.90
25138;DHT22;13112;50.986;4.354;2023-01-09T03:16:13;6.90;99.90
25138;DHT22;13112;50.986;4.354;2023-01-09T03:18:41;6.90;99.90
25138;DHT22;13112;50.986;4.354;2023-01-09T03:21:07;6.90;99.90
25138;DHT22;13112;50.986;4.354;2023-01-09T03:23:47;7.00;99.90
25138;DHT22;13112;50.986;4.354;2023-01-09T03:26:13;7.00;99.90
25138;DHT22;13112;50.986;4.354;2023-01-09T03:28:39;7.00;99.90
25138;DHT22;13112;50.986;4.354;2023-01-09T03:31:05;7.00;99.90
25138;DHT22;13112;50.986;4.354;2023-01-09T03:33:31;7.10;99.90
25138;DHT22;13112;50.986;4.354;2023-01-09T03:35:56;7.20;99.90
25138;DHT22;13112;50.986;4.354;2023-01-09T03:38:22;7.20;99.90
25138;DHT22;13112;50.986;4.354;2023-01-09T03:40:49;7.10;99.90
25138;DHT22;13112;50.986;4.354;2023-01-09T03:43:15;7.10;99.90
25138;DHT22;13112;50.986;4.354;2023-01-09T03:45:41;7.20;99.90
25138;DHT22;13112;50.986;4.354;2023-01-09T03:48:07;7.20;99.90
25138;DHT22;13112;50.986;4.354;2023-01-09T03:50:33;7.30;99.90
25138;DHT22;13112;50.986;4.354;2023-01-09T03:52:59;7.20;99.90
25138;DHT22;13112;50.986;4.354;2023-01-09T03:55:25;7.10;99.90
25138;DHT22;13112;50.986;4.354;2023-01-09T03:57:50;7.00;99.90
25138;DHT22;13112;50.986;4.354;2023-01-09T04:00:21;6.90;99.90
25138;DHT22;13112;50.986;4.354;2023-01-09T04:02:47;6.90;99.90
25138;DHT22;13112;50.986;4.354;2023-01-09T04:05:13;7.00;99.90
25138;DHT22;13112;50.986;4.354;2023-01-09T04:07:39;7.10;99.90
25138;DHT22;13112;50.986;4.354;2023-01-09T04:10:05;7.10;99.90
25138;DHT22;13112;50.986;4.354;2023-01-09T04:12:31;7.10;99.90
25138;DHT22;13112;50.986;4.354;2023-01-09T04:14:56;7.10;99.90
25138;DHT22;13112;50.986;4.354;2023-01-09T04:17:22;7.20;99.90
25138;DHT22;13112;50.986;4.354;2023-01-09T04:19:48;7.20;99.90
25138;DHT22;13112;50.986;4.354;2023-01-09T04:22:13;7.30;99.90
25138;DHT22;13112;50.986;4.354;2023-01-09T04:24:39;7.40;99.90
25138;DHT22;13112;50.986;4.354;2023-01-09T04:27:05;7.30;99.90
25138;DHT22;13112;50.986;4.354;2023-01-09T04:29:30;7.50;99.90
25138;DHT22;13112;50.986;4.354;2023-01-09T04:31:56;7.60;99.90
25138;DHT22;13112;50.986;4.354;2023-01-09T04:34:21;7.60;99.90
25138;DHT22;13112;50.986;4.354;2023-01-09T04:36:50;7.70;99.90
25138;DHT22;13112;50.986;4.354;2023-01-09T04:39:17;7.70;99.90
25138;DHT22;13112;50.986;4.354;2023-01-09T04:41:43;7.80;99.90
25138;DHT22;13112;50.986;4.354;2023-01-09T04:44:20;7.90;99.90
25138;DHT22;13112;50.986;4.354;2023-01-09T04:46:46;7.70;99.90
25138;DHT22;13112;50.986;4.354;2023-01-09T04:49:12;7.80;99.90
25138;DHT22;13112;50.986;4.354;2023-01-09T04:51:38;7.80;99.90
25138;DHT22;13112;50.986;4.354;2023-01-09T04:54:04;7.90;99.90
25138;DHT22;13112;50.986;4.354;2023-01-09T04:56:30;8.00;99.90
25138;DHT22;13112;50.986;4.354;2023-01-09T04:58:56;7.90;99.90
25138;DHT22;13112;50.986;4.354;2023-01-09T05:01:22;7.90;99.90
25138;DHT22;13112;50.986;4.354;2023-01-09T05:03:48;7.80;99.90
25138;DHT22;13112;50.986;4.354;2023-01-09T05:06:13;7.90;99.90
25138;DHT22;13112;50.986;4.354;2023-01-09T05:08:39;7.90;99.90
25138;DHT22;13112;50.986;4.354;2023-01-09T05:11:05;7.90;99.90
25138;DHT22;13112;50.986;4.354;2023-01-09T05:13:31;7.80;99.90
25138;DHT22;13112;50.986;4.354;2023-01-09T05:15:56;7.80;99.90
25138;DHT22;13112;50.986;4.354;2023-01-09T05:18:22;7.70;99.90
25138;DHT22;13112;50.986;4.354;2023-01-09T05:20:48;7.70;99.90
25138;DHT22;13112;50.986;4.354;2023-01-09T05:23:14;7.60;99.90
25138;DHT22;13112;50.986;4.354;2023-01-09T05:25:39;7.50;99.90
25138;DHT22;13112;50.986;4.354;2023-01-09T05:28:05;7.50;99.90
25138;DHT22;13112;50.986;4.354;2023-01-09T05:30:31;7.40;99.90
25138;DHT22;13112;50.986;4.354;2023-01-09T05:32:56;7.30;99.90
25138;DHT22;13112;50.986;4.354;2023-01-09T05:35:22;7.30;99.90
25138;DHT22;13112;50.986;4.354;2023-01-09T05:37:48;7.30;99.90
25138;DHT22;13112;50.986;4.354;2023-01-09T05:40:14;7.40;99.90
25138;DHT22;13112;50.986;4.354;2023-01-09T05:42:41;7.40;99.90
25138;DHT22;13112;50.986;4.354;2023-01-09T05:45:07;7.30;99.90
25138;DHT22;13112;50.986;4.354;2023-01-09T05:47:34;7.40;99.90
25138;DHT22;13112;50.986;4.354;2023-01-09T05:50:00;7.40;99.90
25138;DHT22;13112;50.986;4.354;2023-01-09T05:52:26;7.40;99.90
25138;DHT22;13112;50.986;4.354;2023-01-09T05:54:52;7.40;99.90
25138;DHT22;13112;50.986;4.354;2023-01-09T05:57:17;7.40;99.90
25138;DHT22;13112;50.986;4.354;2023-01-09T05:59:43;7.30;99.90
25138;DHT22;13112;50.986;4.354;2023-01-09T06:02:09;7.40;99.90
25138;DHT22;13112;50.986;4.354;2023-01-09T06:04:35;7.40;99.90
25138;DHT22;13112;50.986;4.354;2023-01-09T06:07:00;7.30;99.90
25138;DHT22;13112;50.986;4.354;2023-01-09T06:09:26;7.40;99.90
25138;DHT22;13112;50.986;4.354;2023-01-09T06:11:52;7.40;99.90
25138;DHT22;13112;50.986;4.354;2023-01-09T06:14:19;7.30;99.90
25138;DHT22;13112;50.986;4.354;2023-01-09T06:16:45;7.30;99.90
25138;DHT22;13112;50.986;4.354;2023-01-09T06:19:11;7.20;99.90
25138;DHT22;13112;50.986;4.354;2023-01-09T06:21:36;7.30;99.90
25138;DHT22;13112;50.986;4.354;2023-01-09T06:24:02;7.30;99.90
25138;DHT22;13112;50.986;4.354;2023-01-09T06:26:28;7.30;99.90
25138;DHT22;13112;50.986;4.354;2023-01-09T06:28:54;7.30;99.90
25138;DHT22;13112;50.986;4.354;2023-01-09T06:31:21;7.30;99.90
25138;DHT22;13112;50.986;4.354;2023-01-09T06:33:47;7.40;99.90
25138;DHT22;13112;50.986;4.354;2023-01-09T06:36:13;7.50;99.90
25138;DHT22;13112;50.986;4.354;2023-01-09T06:38:39;7.30;99.90
25138;DHT22;13112;50.986;4.354;2023-01-09T06:41:04;7.30;99.90
25138;DHT22;13112;50.986;4.354;2023-01-09T06:43:30;7.20;99.90
25138;DHT22;13112;50.986;4.354;2023-01-09T06:45:57;7.20;99.90
25138;DHT22;13112;50.986;4.354;2023-01-09T06:48:22;7.20;99.90
25138;DHT22;13112;50.986;4.354;2023-01-09T06:50:50;7.30;99.90
25138;DHT22;13112;50.986;4.354;2023-01-09T06:53:16;7.30;99.90
25138;DHT22;13112;50.986;4.354;2023-01-09T06:55:43;7.30;99.90
25138;DHT22;13112;50.986;4.354;2023-01-09T06:58:08;7.30;99.90
25138;DHT22;13112;50.986;4.354;2023-01-09T07:00:34;7.30;99.90
25138;DHT22;13112;50.986;4.354;2023-01-09T07:03:00;7.30;99.90
25138;DHT22;13112;50.986;4.354;2023-01-09T07:05:26;7.50;99.90
25138;DHT22;13112;50.986;4.354;2023-01-09T07:07:51;7.40;99.90
25138;DHT22;13112;50.986;4.354;2023-01-09T07:10:17;7.50;99.90
25138;DHT22;13112;50.986;4.354;2023-01-09T07:12:43;7.50;99.90
25138;DHT22;13112;50.986;4.354;2023-01-09T07:15:09;7.50;99.90
25138;DHT22;13112;50.986;4.354;2023-01-09T07:17:34;7.50;99.90
25138;DHT22;13112;50.986;4.354;2023-01-09T07:20:00;7.50;99.90
25138;DHT22;13112;50.986;4.354;2023-01-09T07:22:26;7.40;99.90
25138;DHT22;13112;50.986;4.354;2023-01-09T07:24:52;7.40;99.90
25138;DHT22;13112;50.986;4.354;2023-01-09T07:27:18;7.40;99.90
25138;DHT22;13112;50.986;4.354;2023-01-09T07:29:43;7.30;99.90
25138;DHT22;13112;50.986;4.354;2023-01-09T07:32:09;7.30;99.90
25138;DHT22;13112;50.986;4.354;2023-01-09T07:34:35;7.30;99.90
25138;DHT22;13112;50.986;4.354;2023-01-09T07:37:00;7.40;99.90
25138;DHT22;13112;50.986;4.354;2023-01-09T07:39:26;7.40;99.90
25138;DHT22;13112;50.986;4.354;2023-01-09T07:41:52;7.40;99.90
25138;DHT22;13112;50.986;4.354;2023-01-09T07:44:17;7.50;99.90
25138;DHT22;13112;50.986;4.354;2023-01-09T07:46:43;7.50;99.90
25138;DHT22;13112;50.986;4.354;2023-01-09T07:49:09;7.50;99.90
25138;DHT22;13112;50.986;4.354;2023-01-09T07:51:35;7.50;99.90
25138;DHT22;13112;50.986;4.354;2023-01-09T07:54:03;7.60;99.90
25138;DHT22;13112;50.986;4.354;2023-01-09T07:56:29;7.60;99.90
25138;DHT22;13112;50.986;4.354;2023-01-09T07:58:54;7.60;99.90
25138;DHT22;13112;50.986;4.354;2023-01-09T08:01:20;7.50;99.90
25138;DHT22;13112;50.986;4.354;2023-01-09T08:03:46;7.60;99.90
25138;DHT22;13112;50.986;4.354;2023-01-09T08:06:11;7.70;99.90
25138;DHT22;13112;50.986;4.354;2023-01-09T08:08:37;7.80;99.90
25138;DHT22;13112;50.986;4.354;2023-01-09T08:11:03;7.80;99.90
25138;DHT22;13112;50.986;4.354;2023-01-09T08:13:29;7.70;99.90
25138;DHT22;13112;50.986;4.354;2023-01-09T08:15:54;7.70;99.90
25138;DHT22;13112;50.986;4.354;2023-01-09T08:18:20;7.70;99.90
25138;DHT22;13112;50.986;4.354;2023-01-09T08:20:49;7.80;99.90
25138;DHT22;13112;50.986;4.354;2023-01-09T08:23:14;7.90;99.90
25138;DHT22;13112;50.986;4.354;2023-01-09T08:25:40;7.80;99.90
25138;DHT22;13112;50.986;4.354;2023-01-09T08:28:05;7.80;99.90
25138;DHT22;13112;50.986;4.354;2023-01-09T08:30:33;7.90;99.90
25138;DHT22;13112;50.986;4.354;2023-01-09T08:32:59;7.90;99.90
25138;DHT22;13112;50.986;4.354;2023-01-09T08:35:25;8.10;99.90
25138;DHT22;13112;50.986;4.354;2023-01-09T08:37:51;8.10;99.90
25138;DHT22;13112;50.986;4.354;2023-01-09T08:40:17;8.20;99.90
25138;DHT22;13112;50.986;4.354;2023-01-09T08:42:42;8.20;99.90
25138;DHT22;13112;50.986;4.354;2023-01-09T08:45:26;8.20;99.90
25138;DHT22;13112;50.986;4.354;2023-01-09T08:48:11;8.10;99.90
25138;DHT22;13112;50.986;4.354;2023-01-09T08:50:36;8.30;99.90
25138;DHT22;13112;50.986;4.354;2023-01-09T08:53:02;8.20;99.90
25138;DHT22;13112;50.986;4.354;2023-01-09T08:55:28;8.10;99.90
25138;DHT22;13112;50.986;4.354;2023-01-09T08:57:54;7.90;99.90
25138;DHT22;13112;50.986;4.354;2023-01-09T09:00:22;7.90;99.90
25138;DHT22;13112;50.986;4.354;2023-01-09T09:02:52;8.00;99.90
25138;DHT22;13112;50.986;4.354;2023-01-09T09:05:18;7.90;99.90
25138;DHT22;13112;50.986;4.354;2023-01-09T09:07:47;7.90;99.90
25138;DHT22;13112;50.986;4.354;2023-01-09T09:10:13;7.80;99.90
25138;DHT22;13112;50.986;4.354;2023-01-09T09:12:38;7.90;99.90
25138;DHT22;13112;50.986;4.354;2023-01-09T09:15:04;8.00;99.90
25138;DHT22;13112;50.986;4.354;2023-01-09T09:17:59;8.10;99.90
25138;DHT22;13112;50.986;4.354;2023-01-09T09:20:31;8.20;99.90
25138;DHT22;13112;50.986;4.354;2023-01-09T09:22:57;8.30;99.90
25138;DHT22;13112;50.986;4.354;2023-01-09T09:25:23;8.20;99.90
25138;DHT22;13112;50.986;4.354;2023-01-09T09:27:48;8.30;99.90
25138;DHT22;13112;50.986;4.354;2023-01-09T09:30:16;8.30;99.90
25138;DHT22;13112;50.986;4.354;2023-01-09T09:32:42;8.30;99.90
25138;DHT22;13112;50.986;4.354;2023-01-09T09:35:09;8.10;99.90
25138;DHT22;13112;50.986;4.354;2023-01-09T09:37:35;8.10;99.90
25138;DHT22;13112;50.986;4.354;2023-01-09T09:40:01;8.10;99.90
25138;DHT22;13112;50.986;4.354;2023-01-09T09:48:34;8.30;99.90
25138;DHT22;13112;50.986;4.354;2023-01-09T09:51:20;8.10;99.90
25138;DHT22;13112;50.986;4.354;2023-01-09T09:53:59;8.10;99.90
25138;DHT22;13112;50.986;4.354;2023-01-09T09:56:33;8.00;99.90
25138;DHT22;13112;50.986;4.354;2023-01-09T09:59:04;8.20;99.90
25138;DHT22;13112;50.986;4.354;2023-01-09T10:01:59;8.20;99.90
25138;DHT22;13112;50.986;4.354;2023-01-09T10:04:30;8.20;99.90
25138;DHT22;13112;50.986;4.354;2023-01-09T10:07:00;8.20;99.90
25138;DHT22;13112;50.986;4.354;2023-01-09T10:09:49;8.40;99.90
25138;DHT22;13112;50.986;4.354;2023-01-09T10:14:43;9.00;99.90
25138;DHT22;13112;50.986;4.354;2023-01-09T10:17:19;9.30;99.90
25138;DHT22;13112;50.986;4.354;2023-01-09T10:20:18;9.70;99.90
25138;DHT22;13112;50.986;4.354;2023-01-09T10:25:56;9.30;99.90
25138;DHT22;13112;50.986;4.354;2023-01-09T10:39:18;8.80;99.90
25138;DHT22;13112;50.986;4.354;2023-01-09T10:44:39;8.60;99.90
25138;DHT22;13112;50.986;4.354;2023-01-09T10:47:31;8.70;99.90
25138;DHT22;13112;50.986;4.354;2023-01-09T10:49:58;8.50;99.90
25138;DHT22;13112;50.986;4.354;2023-01-09T10:52:32;8.50;99.90
25138;DHT22;13112;50.986;4.354;2023-01-09T10:57:53;8.60;99.90
25138;DHT22;13112;50.986;4.354;2023-01-09T11:00:22;9.20;99.90
25138;DHT22;13112;50.986;4.354;2023-01-09T11:02:50;9.50;99.90
25138;DHT22;13112;50.986;4.354;2023-01-09T11:05:22;9.30;99.90
25138;DHT22;13112;50.986;4.354;2023-01-09T11:07:52;9.00;99.90
25138;DHT22;13112;50.986;4.354;2023-01-09T11:10:19;9.00;99.90
25138;DHT22;13112;50.986;4.354;2023-01-09T11:12:45;8.90;99.90
25138;DHT22;13112;50.986;4.354;2023-01-09T11:15:17;8.90;99.90
25138;DHT22;13112;50.986;4.354;2023-01-09T11:17:53;9.10;99.90
25138;DHT22;13112;50.986;4.354;2023-01-09T11:22:49;9.60;99.90
25138;DHT22;13112;50.986;4.354;2023-01-09T11:25:21;10.00;99.90
25138;DHT22;13112;50.986;4.354;2023-01-09T11:28:04;11.20;99.90
25138;DHT22;13112;50.986;4.354;2023-01-09T11:30:35;12.50;99.90
25138;DHT22;13112;50.986;4.354;2023-01-09T11:33:14;13.40;99.90
25138;DHT22;13112;50.986;4.354;2023-01-09T11:38:21;14.60;99.90
25138;DHT22;13112;50.986;4.354;2023-01-09T11:41:12;14.60;99.90
25138;DHT22;13112;50.986;4.354;2023-01-09T11:43:37;15.00;99.90
25138;DHT22;13112;50.986;4.354;2023-01-09T11:46:06;15.20;99.90
25138;DHT22;13112;50.986;4.354;2023-01-09T11:51:04;12.70;99.90
25138;DHT22;13112;50.986;4.354;2023-01-09T11:54:17;11.60;99.90
25138;DHT22;13112;50.986;4.354;2023-01-09T11:56:38;11.10;99.90
25138;DHT22;13112;50.986;4.354;2023-01-09T11:59:15;10.80;99.90
25138;DHT22;13112;50.986;4.354;2023-01-09T12:12:24;10.10;99.90
25138;DHT22;13112;50.986;4.354;2023-01-09T12:31:19;10.10;99.90
25138;DHT22;13112;50.986;4.354;2023-01-09T12:39:58;10.20;99.90
25138;DHT22;13112;50.986;4.354;2023-01-09T12:53:55;10.40;99.90
25138;DHT22;13112;50.986;4.354;2023-01-09T12:56:32;10.50;99.90
25138;DHT22;13112;50.986;4.354;2023-01-09T12:59:05;10.60;99.90
25138;DHT22;13112;50.986;4.354;2023-01-09T13:01:37;10.50;99.90
25138;DHT22;13112;50.986;4.354;2023-01-09T13:06:49;10.60;99.90
25138;DHT22;13112;50.986;4.354;2023-01-09T13:09:25;10.60;99.90
25138;DHT22;13112;50.986;4.354;2023-01-09T13:12:13;10.50;99.90
25138;DHT22;13112;50.986;4.354;2023-01-09T13:14:57;10.70;99.90
25138;DHT22;13112;50.986;4.354;2023-01-09T13:17:26;10.70;99.90
25138;DHT22;13112;50.986;4.354;2023-01-09T13:19:54;10.60;99.90
25138;DHT22;13112;50.986;4.354;2023-01-09T13:22:23;10.50;99.90
25138;DHT22;13112;50.986;4.354;2023-01-09T13:25:18;10.60;99.90
25138;DHT22;13112;50.986;4.354;2023-01-09T13:27:53;10.50;99.90
25138;DHT22;13112;50.986;4.354;2023-01-09T13:33:22;10.50;99.90
25138;DHT22;13112;50.986;4.354;2023-01-09T13:35:54;10.80;99.90
25138;DHT22;13112;50.986;4.354;2023-01-09T13:38:22;11.40;99.90
25138;DHT22;13112;50.986;4.354;2023-01-09T13:41:11;11.90;99.90
25138;DHT22;13112;50.986;4.354;2023-01-09T13:43:59;11.90;99.90
25138;DHT22;13112;50.986;4.354;2023-01-09T13:46:40;11.70;99.90
25138;DHT22;13112;50.986;4.354;2023-01-09T13:59:46;11.70;99.90
25138;DHT22;13112;50.986;4.354;2023-01-09T14:05:01;11.50;99.90
25138;DHT22;13112;50.986;4.354;2023-01-09T14:10:23;11.30;99.90
25138;DHT22;13112;50.986;4.354;2023-01-09T14:12:50;11.20;99.90
25138;DHT22;13112;50.986;4.354;2023-01-09T14:15:42;11.10;99.90
25138;DHT22;13112;50.986;4.354;2023-01-09T14:18:17;11.00;99.90
25138;DHT22;13112;50.986;4.354;2023-01-09T14:20:55;11.00;99.90
25138;DHT22;13112;50.986;4.354;2023-01-09T14:23:24;10.80;99.90
25138;DHT22;13112;50.986;4.354;2023-01-09T14:25:51;10.60;99.90
25138;DHT22;13112;50.986;4.354;2023-01-09T14:28:28;10.40;99.90
25138;DHT22;13112;50.986;4.354;2023-01-09T14:36:10;10.40;99.90
25138;DHT22;13112;50.986;4.354;2023-01-09T14:41:19;10.20;99.90
25138;DHT22;13112;50.986;4.354;2023-01-09T14:44:26;10.30;99.90
25138;DHT22;13112;50.986;4.354;2023-01-09T14:46:55;10.20;99.90
25138;DHT22;13112;50.986;4.354;2023-01-09T14:49:44;10.10;99.90
25138;DHT22;13112;50.986;4.354;2023-01-09T14:52:29;10.00;99.90
25138;DHT22;13112;50.986;4.354;2023-01-09T14:55:01;10.10;99.90
25138;DHT22;13112;50.986;4.354;2023-01-09T14:57:32;10.20;99.90
25138;DHT22;13112;50.986;4.354;2023-01-09T15:02:33;9.90;99.90
25138;DHT22;13112;50.986;4.354;2023-01-09T15:05:05;9.60;99.90
25138;DHT22;13112;50.986;4.354;2023-01-09T15:07:55;9.40;99.90
25138;DHT22;13112;50.986;4.354;2023-01-09T15:10:25;9.10;99.90
25138;DHT22;13112;50.986;4.354;2023-01-09T15:12:53;8.90;99.90
25138;DHT22;13112;50.986;4.354;2023-01-09T15:15:21;9.00;99.90
25138;DHT22;13112;50.986;4.354;2023-01-09T15:18:17;9.20;99.90
25138;DHT22;13112;50.986;4.354;2023-01-09T15:20:43;9.20;99.90
25138;DHT22;13112;50.986;4.354;2023-01-09T15:23:24;9.40;99.90
25138;DHT22;13112;50.986;4.354;2023-01-09T15:25:50;9.40;99.90
25138;DHT22;13112;50.986;4.354;2023-01-09T15:28:28;9.30;99.90
25138;DHT22;13112;50.986;4.354;2023-01-09T15:31:16;9.20;99.90
25138;DHT22;13112;50.986;4.354;2023-01-09T15:33:44;9.20;99.90
25138;DHT22;13112;50.986;4.354;2023-01-09T15:36:20;9.10;99.90
25138;DHT22;13112;50.986;4.354;2023-01-09T15:38:47;9.20;99.90
25138;DHT22;13112;50.986;4.354;2023-01-09T15:41:28;9.30;99.90
25138;DHT22;13112;50.986;4.354;2023-01-09T15:44:26;9.10;99.90
25138;DHT22;13112;50.986;4.354;2023-01-09T15:46:58;9.00;99.90
25138;DHT22;13112;50.986;4.354;2023-01-09T15:49:25;8.90;99.90
25138;DHT22;13112;50.986;4.354;2023-01-09T15:51:52;9.00;99.90
25138;DHT22;13112;50.986;4.354;2023-01-09T15:54:29;9.10;99.90
25138;DHT22;13112;50.986;4.354;2023-01-09T15:59:50;9.20;99.90
25138;DHT22;13112;50.986;4.354;2023-01-09T16:02:16;9.20;99.90
25138;DHT22;13112;50.986;4.354;2023-01-09T16:05:07;9.30;99.90
25138;DHT22;13112;50.986;4.354;2023-01-09T16:07:34;9.20;99.90
25138;DHT22;13112;50.986;4.354;2023-01-09T16:09:59;9.10;99.90
25138;DHT22;13112;50.986;4.354;2023-01-09T16:12:27;8.90;99.90
25138;DHT22;13112;50.986;4.354;2023-01-09T16:14:59;8.80;99.90
25138;DHT22;13112;50.986;4.354;2023-01-09T16:17:26;8.60;99.90
25138;DHT22;13112;50.986;4.354;2023-01-09T16:20:13;8.50;99.90
25138;DHT22;13112;50.986;4.354;2023-01-09T16:22:55;8.50;99.90
25138;DHT22;13112;50.986;4.354;2023-01-09T16:25:32;8.30;99.90
25138;DHT22;13112;50.986;4.354;2023-01-09T16:28:18;8.30;99.90
25138;DHT22;13112;50.986;4.354;2023-01-09T16:33:24;8.50;99.90
25138;DHT22;13112;50.986;4.354;2023-01-09T16:35:51;8.30;99.90
25138;DHT22;13112;50.986;4.354;2023-01-09T16:38:18;8.20;99.90
25138;DHT22;13112;50.986;4.354;2023-01-09T16:41:02;8.30;99.90
25138;DHT22;13112;50.986;4.354;2023-01-09T16:43:47;8.30;99.90
25138;DHT22;13112;50.986;4.354;2023-01-09T16:46:14;8.40;99.90
25138;DHT22;13112;50.986;4.354;2023-01-09T16:48:40;8.40;99.90
25138;DHT22;13112;50.986;4.354;2023-01-09T16:51:08;8.30;99.90
25138;DHT22;13112;50.986;4.354;2023-01-09T16:53:36;8.10;99.90
25138;DHT22;13112;50.986;4.354;2023-01-09T16:56:02;8.10;99.90
25138;DHT22;13112;50.986;4.354;2023-01-09T16:58:32;8.10;99.90
25138;DHT22;13112;50.986;4.354;2023-01-09T17:00:59;8.00;99.90
25138;DHT22;13112;50.986;4.354;2023-01-09T17:03:25;8.00;99.90
25138;DHT22;13112;50.986;4.354;2023-01-09T17:06:01;8.20;99.90
25138;DHT22;13112;50.986;4.354;2023-01-09T17:08:32;8.30;99.90
25138;DHT22;13112;50.986;4.354;2023-01-09T17:10:58;8.30;99.90
25138;DHT22;13112;50.986;4.354;2023-01-09T17:13:24;8.30;99.90
25138;DHT22;13112;50.986;4.354;2023-01-09T17:15:55;8.40;99.90
25138;DHT22;13112;50.986;4.354;2023-01-09T17:18:22;8.40;99.90
25138;DHT22;13112;50.986;4.354;2023-01-09T17:20:51;8.50;99.90
25138;DHT22;13112;50.986;4.354;2023-01-09T17:23:17;8.50;99.90
25138;DHT22;13112;50.986;4.354;2023-01-09T17:25:45;8.40;99.90
25138;DHT22;13112;50.986;4.354;2023-01-09T17:28:30;8.30;99.90
25138;DHT22;13112;50.986;4.354;2023-01-09T17:30:59;8.20;99.90
25138;DHT22;13112;50.986;4.354;2023-01-09T17:33:26;8.10;99.90
25138;DHT22;13112;50.986;4.354;2023-01-09T17:35:54;8.00;99.90
25138;DHT22;13112;50.986;4.354;2023-01-09T17:38:21;8.00;99.90
25138;DHT22;13112;50.986;4.354;2023-01-09T17:40:46;7.90;99.90
25138;DHT22;13112;50.986;4.354;2023-01-09T17:43:12;8.00;99.90
25138;DHT22;13112;50.986;4.354;2023-01-09T17:45:39;8.00;99.90
25138;DHT22;13112;50.986;4.354;2023-01-09T17:48:10;8.40;99.90
25138;DHT22;13112;50.986;4.354;2023-01-09T17:50:38;8.30;99.90
25138;DHT22;13112;50.986;4.354;2023-01-09T17:53:03;8.10;99.90
25138;DHT22;13112;50.986;4.354;2023-01-09T17:55:29;8.20;99.90
25138;DHT22;13112;50.986;4.354;2023-01-09T17:57:55;8.20;99.90
25138;DHT22;13112;50.986;4.354;2023-01-09T18:00:33;8.10;99.90
25138;DHT22;13112;50.986;4.354;2023-01-09T18:03:04;8.10;99.90
25138;DHT22;13112;50.986;4.354;2023-01-09T18:05:33;8.10;99.90
25138;DHT22;13112;50.986;4.354;2023-01-09T18:08:01;8.10;99.90
25138;DHT22;13112;50.986;4.354;2023-01-09T18:10:27;8.00;99.90
25138;DHT22;13112;50.986;4.354;2023-01-09T18:12:54;8.00;99.90
25138;DHT22;13112;50.986;4.354;2023-01-09T18:15:21;8.00;99.90
25138;DHT22;13112;50.986;4.354;2023-01-09T18:17:50;7.90;99.90
25138;DHT22;13112;50.986;4.354;2023-01-09T18:20:16;8.10;99.90
25138;DHT22;13112;50.986;4.354;2023-01-09T18:22:42;8.00;99.90
25138;DHT22;13112;50.986;4.354;2023-01-09T18:25:08;7.90;99.90